createdAt,value
2022-12-08T00:03:03.360Z,100309.66
2022-12-08T00:06:33.872Z,100316.69
2022-12-08T00:09:43.387Z,100315.88
2022-12-08T00:12:46.836Z,100319.97
2022-12-08T00:15:49.534Z,100289.34
2022-12-08T00:18:52.375Z,100312.66
2022-12-08T00:21:56.491Z,100306.94
2022-12-08T00:24:59.900Z,100311.34
2022-12-08T00:28:02.335Z,100311.69
2022-12-08T00:31:10.244Z,100306.34
2022-12-08T00:34:16.292Z,100322.91
2022-12-08T00:37:25.905Z,100312.84
2022-12-08T00:40:35.461Z,100319.88
2022-12-08T00:43:39.340Z,100321.47
2022-12-08T00:46:42.257Z,100322.56
2022-12-08T00:49:45.318Z,100324.72
2022-12-08T00:52:50.510Z,100325.84
2022-12-08T00:55:53.238Z,100329.06
2022-12-08T00:58:55.731Z,100312.78
2022-12-08T01:02:02.920Z,100316.59
2022-12-08T01:05:07.278Z,100280.44
2022-12-08T01:08:11.356Z,100321.47
2022-12-08T01:11:17.861Z,100320.12
2022-12-08T01:14:24.508Z,100201.97
2022-12-08T01:17:26.864Z,100234.47
2022-12-08T01:20:29.577Z,100317.78
2022-12-08T01:23:32.083Z,100315.63
2022-12-08T01:26:38.310Z,100322.19
2022-12-08T01:29:41.328Z,100318.34
2022-12-08T01:32:45.896Z,100322.13
2022-12-08T01:35:48.494Z,100317.78
2022-12-08T01:38:52.426Z,100264.28
2022-12-08T01:41:54.789Z,100315.19
2022-12-08T01:45:00.597Z,100318.44
2022-12-08T01:48:09.315Z,100318.69
2022-12-08T01:51:16.230Z,100309.25
2022-12-08T01:54:24.781Z,100310.94
2022-12-08T01:57:47.218Z,100302.59
2022-12-08T02:00:52.198Z,100308.34
2022-12-08T02:04:01.158Z,100301.03
2022-12-08T02:07:08.110Z,100302.41
2022-12-08T02:10:16.325Z,100295.34
2022-12-08T02:13:21.484Z,100291.53
2022-12-08T02:17:12.787Z,100286.16
2022-12-08T02:20:24.149Z,100290.81
2022-12-08T02:24:05.792Z,100295.41
2022-12-08T02:27:30.314Z,100282.91
2022-12-08T02:30:45.118Z,100289.16
2022-12-08T02:34:07.284Z,100291.66
2022-12-08T02:37:28.230Z,100290.50
2022-12-08T02:40:44.181Z,100289.38
2022-12-08T02:44:15.880Z,100259.09
2022-12-08T02:47:20.335Z,100278.25
2022-12-08T02:50:26.126Z,100268.75
2022-12-08T02:53:31.916Z,100275.28
2022-12-08T02:57:00.496Z,100266.06
2022-12-08T03:00:08.669Z,100262.28
2022-12-08T03:04:00.710Z,100270.09
2022-12-08T03:07:10.351Z,100255.19
2022-12-08T03:10:21.133Z,100259.78
2022-12-08T03:13:29.365Z,100258.41
2022-12-08T03:16:36.664Z,100259.50
2022-12-08T03:19:42.562Z,100252.41
2022-12-08T03:22:47.178Z,100259.97
2022-12-08T03:25:59.864Z,100260.78
2022-12-08T03:29:02.982Z,100258.34
2022-12-08T03:32:17.367Z,100262.09
2022-12-08T03:35:24.409Z,100257.72
2022-12-08T03:38:29.587Z,100255.00
2022-12-08T03:41:33.299Z,100260.66
2022-12-08T03:44:35.979Z,100267.91
2022-12-08T03:47:41.359Z,100260.81
2022-12-08T03:50:44.607Z,100264.16
2022-12-08T03:53:47.770Z,100258.69
2022-12-08T03:56:52.634Z,100257.84
2022-12-08T03:59:59.716Z,100253.84
2022-12-08T04:03:02.279Z,100256.50
2022-12-08T04:06:06.307Z,100248.53
2022-12-08T04:09:09.318Z,100253.16
2022-12-08T04:12:12.011Z,100256.91
2022-12-08T04:15:14.358Z,100249.84
2022-12-08T04:18:17.031Z,100238.91
2022-12-08T04:21:20.394Z,100246.03
2022-12-08T04:24:23.158Z,100245.44
2022-12-08T04:27:25.521Z,100245.69
2022-12-08T04:30:29.397Z,100231.81
2022-12-08T04:33:32.176Z,100233.66
2022-12-08T04:36:34.892Z,100232.84
2022-12-08T04:39:37.374Z,100235.00
2022-12-08T04:42:40.015Z,100231.75
2022-12-08T04:45:48.544Z,100237.75
2022-12-08T04:49:10.666Z,100238.84
2022-12-08T04:55:56.757Z,100219.53
2022-12-08T04:58:59.196Z,100229.09
2022-12-08T05:02:02.476Z,100228.22
2022-12-08T05:05:05.640Z,100232.72
2022-12-08T05:08:09.877Z,100234.38
2022-12-08T05:11:13.890Z,100239.22
2022-12-08T05:14:18.725Z,100242.81
2022-12-08T05:17:21.302Z,100242.53
2022-12-08T05:20:24.049Z,100238.22
2022-12-08T05:23:29.396Z,100247.06
2022-12-08T05:26:32.035Z,100256.97
2022-12-08T05:29:35.765Z,100235.31
2022-12-08T05:32:38.260Z,100250.25
2022-12-08T05:35:40.576Z,100218.59
2022-12-08T05:38:48.443Z,100234.81
2022-12-08T05:41:50.867Z,100229.88
2022-12-08T05:44:53.564Z,100234.81
2022-12-08T05:47:55.907Z,100209.50
2022-12-08T05:50:58.527Z,100208.44
2022-12-08T05:54:00.970Z,100207.69
2022-12-08T05:57:03.773Z,100224.53
2022-12-08T06:00:07.558Z,100227.78
2022-12-08T06:03:16.095Z,100230.44
2022-12-08T06:06:20.005Z,100226.09
2022-12-08T06:09:22.464Z,100228.81
2022-12-08T06:12:25.260Z,100236.34
2022-12-08T06:15:27.972Z,100235.78
2022-12-08T06:18:32.829Z,100237.66
2022-12-08T06:21:35.980Z,100233.06
2022-12-08T06:24:38.766Z,100235.31
2022-12-08T06:27:41.091Z,100253.13
2022-12-08T06:30:45.362Z,100249.78
2022-12-08T06:33:48.603Z,100244.28
2022-12-08T06:36:52.665Z,100253.84
2022-12-08T06:39:55.291Z,100254.91
2022-12-08T06:42:59.078Z,100247.06
2022-12-08T06:46:02.365Z,100250.78
2022-12-08T06:49:05.139Z,100256.25
2022-12-08T06:52:08.552Z,100250.50
2022-12-08T06:55:29.187Z,100259.00
2022-12-08T06:58:36.258Z,100255.16
2022-12-08T07:01:41.895Z,100253.72
2022-12-08T07:04:44.594Z,100259.38
2022-12-08T07:07:47.343Z,100232.78
2022-12-08T07:10:51.592Z,100258.94
2022-12-08T07:14:00.418Z,100259.16
2022-12-08T07:17:03.513Z,100252.56
2022-12-08T07:20:07.366Z,100256.88
2022-12-08T07:23:09.902Z,100253.59
2022-12-08T07:26:13.688Z,100254.09
2022-12-08T07:29:16.933Z,100252.69
2022-12-08T07:32:21.097Z,100241.56
2022-12-08T07:35:23.301Z,100252.81
2022-12-08T07:38:26.679Z,100253.03
2022-12-08T07:41:29.106Z,100251.56
2022-12-08T07:44:32.014Z,100204.50
2022-12-08T07:47:34.332Z,100240.03
2022-12-08T07:50:37.178Z,100243.84
2022-12-08T07:53:48.543Z,100250.78
2022-12-08T07:56:57.972Z,100221.47
2022-12-08T08:00:00.403Z,100230.37
2022-12-08T08:03:03.126Z,100245.06
2022-12-08T08:06:05.997Z,100243.87
2022-12-08T08:09:10.056Z,100246.97
2022-12-08T08:12:30.839Z,100218.69
2022-12-08T08:15:34.001Z,100249.53
2022-12-08T08:18:37.871Z,100252.03
2022-12-08T08:21:46.290Z,100225.19
2022-12-08T08:24:49.125Z,100233.09
2022-12-08T08:27:51.599Z,100215.28
2022-12-08T08:30:54.511Z,100212.06
2022-12-08T08:33:57.416Z,100236.16
2022-12-08T08:37:00.028Z,100208.41
2022-12-08T08:40:03.075Z,100207.41
2022-12-08T08:43:07.054Z,100236.78
2022-12-08T08:46:10.205Z,100244.66
2022-12-08T08:49:13.193Z,100242.38
2022-12-08T08:52:15.751Z,100240.13
2022-12-08T08:55:19.993Z,100234.50
2022-12-08T08:58:22.231Z,100236.78
2022-12-08T09:01:27.861Z,100240.44
2022-12-08T09:04:30.494Z,100237.63
2022-12-08T09:07:36.126Z,100220.31
2022-12-08T09:10:38.592Z,100225.75
2022-12-08T09:13:41.181Z,100230.94
2022-12-08T09:16:44.334Z,100229.09
2022-12-08T09:19:47.131Z,100234.44
2022-12-08T09:22:49.415Z,100228.25
2022-12-08T09:25:52.026Z,100200.53
2022-12-08T09:28:55.798Z,100197.00
2022-12-08T09:31:58.275Z,100216.59
2022-12-08T09:35:01.627Z,100213.81
2022-12-08T09:38:05.001Z,100212.69
2022-12-08T09:41:37.483Z,100224.78
2022-12-08T09:45:04.800Z,100212.78
2022-12-08T09:48:14.953Z,100201.34
2022-12-08T09:51:17.699Z,100191.66
2022-12-08T09:54:25.653Z,100182.94
2022-12-08T09:57:30.363Z,100163.94
2022-12-08T10:00:40.123Z,100158.78
2022-12-08T10:03:43.197Z,100146.75
2022-12-08T10:07:04.798Z,100152.44
2022-12-08T10:10:22.796Z,100173.63
2022-12-08T10:13:37.689Z,100167.59
2022-12-08T10:16:48.538Z,100178.12
2022-12-08T10:20:07.552Z,100181.38
2022-12-08T10:23:27.774Z,100180.88
2022-12-08T10:26:33.018Z,100190.88
2022-12-08T10:29:35.544Z,100168.63
2022-12-08T10:32:38.227Z,100142.81
2022-12-08T10:35:47.591Z,100159.03
2022-12-08T10:38:49.922Z,100148.47
2022-12-08T10:41:52.523Z,100130.91
2022-12-08T10:45:10.567Z,100145.56
2022-12-08T10:48:29.090Z,100101.06
2022-12-08T10:51:34.192Z,100103.69
2022-12-08T10:54:42.012Z,100126.53
2022-12-08T10:57:44.366Z,100119.66
2022-12-08T11:00:47.165Z,100088.00
2022-12-08T11:03:59.709Z,100077.00
2022-12-08T11:07:04.904Z,100099.22
2022-12-08T11:10:18.785Z,100096.16
2022-12-08T11:13:29.883Z,100095.84
2022-12-08T11:16:32.308Z,100085.84
2022-12-08T11:19:44.348Z,100073.53
2022-12-08T11:22:53.276Z,100080.00
2022-12-08T11:26:01.325Z,100054.31
2022-12-08T11:29:04.448Z,100039.16
2022-12-08T11:32:12.928Z,100076.59
2022-12-08T11:35:30.232Z,100061.94
2022-12-08T11:38:34.040Z,100019.78
2022-12-08T11:41:41.180Z,100032.00
2022-12-08T11:44:53.137Z,100004.41
2022-12-08T11:48:17.426Z,99988.25
2022-12-08T11:51:28.353Z,100004.41
2022-12-08T11:54:45.414Z,100006.03
2022-12-08T11:57:50.879Z,100012.09
2022-12-08T12:00:53.141Z,99996.44
2022-12-08T12:04:13.985Z,100009.25
2022-12-08T12:07:42.569Z,99997.53
2022-12-08T12:11:02.956Z,100009.56
2022-12-08T12:14:17.938Z,99982.41
2022-12-08T12:17:47.976Z,100012.72
2022-12-08T12:21:11.521Z,99983.63
2022-12-08T12:24:35.588Z,100004.84
2022-12-08T12:27:41.531Z,100009.97
2022-12-08T12:31:06.997Z,99922.66
2022-12-08T12:34:22.166Z,100016.56
2022-12-08T12:37:35.342Z,99978.06
2022-12-08T12:40:42.021Z,100011.50
2022-12-08T12:44:10.516Z,100016.94
2022-12-08T12:47:14.964Z,100016.94
2022-12-08T12:50:37.258Z,100004.41
2022-12-08T12:53:39.517Z,100010.50
2022-12-08T12:56:54.695Z,100001.19
2022-12-08T13:00:00.092Z,99998.94
2022-12-08T13:03:03.013Z,99992.50
2022-12-08T13:06:09.951Z,99986.44
2022-12-08T13:09:27.336Z,99988.03
2022-12-08T13:12:29.845Z,99976.13
2022-12-08T13:15:52.594Z,99987.00
2022-12-08T13:19:02.415Z,99978.44
2022-12-08T13:22:43.360Z,99981.66
2022-12-08T13:25:48.290Z,99968.59
2022-12-08T13:29:01.226Z,99978.94
2022-12-08T13:32:24.966Z,99978.81
2022-12-08T13:35:27.913Z,99943.13
2022-12-08T13:38:32.417Z,99973.84
2022-12-08T13:41:43.566Z,99953.44
2022-12-08T13:45:39.612Z,99988.22
2022-12-08T13:53:49.356Z,99988.31
2022-12-08T13:59:18.605Z,99978.44
2022-12-08T14:02:36.267Z,99987.41
2022-12-08T14:06:11.014Z,99947.59
2022-12-08T14:09:12.676Z,99973.66
2022-12-08T14:12:27.810Z,99976.50
2022-12-08T14:15:37.897Z,99970.00
2022-12-08T14:18:40.999Z,99946.09
2022-12-08T14:21:47.906Z,99973.47
2022-12-08T14:24:53.275Z,99973.28
2022-12-08T14:28:05.310Z,99972.78
2022-12-08T14:31:08.643Z,99962.19
2022-12-08T14:34:18.859Z,99979.47
2022-12-08T14:37:22.509Z,99984.59
2022-12-08T14:40:36.116Z,99980.56
2022-12-08T14:43:40.890Z,99983.81
2022-12-08T14:47:11.593Z,99975.63
2022-12-08T14:50:38.665Z,99975.34
2022-12-08T14:53:58.920Z,99983.41
2022-12-08T14:57:02.858Z,99983.03
2022-12-08T15:00:11.575Z,99973.53
2022-12-08T15:03:17.287Z,99974.31
2022-12-08T15:06:22.428Z,99975.75
2022-12-08T15:09:43.144Z,99942.03
2022-12-08T15:13:07.425Z,99941.44
2022-12-08T15:16:28.624Z,99969.28
2022-12-08T15:19:33.424Z,99962.06
2022-12-08T15:22:36.072Z,99956.94
2022-12-08T15:25:38.332Z,99962.72
2022-12-08T15:28:40.831Z,99970.37
2022-12-08T15:31:43.209Z,99962.00
2022-12-08T15:34:45.852Z,99966.66
2022-12-08T15:37:53.237Z,99961.31
2022-12-08T15:41:02.105Z,99965.63
2022-12-08T15:44:12.197Z,99932.72
2022-12-08T15:47:21.346Z,99954.34
2022-12-08T15:50:54.086Z,99945.66
2022-12-08T16:09:12.919Z,99928.91
2022-12-08T16:13:55.445Z,99941.03
2022-12-08T16:16:34.311Z,99954.16
2022-12-08T16:19:47.630Z,99950.94
2022-12-08T16:23:03.593Z,99951.53
2022-12-08T16:27:22.030Z,99952.16
2022-12-08T16:29:48.399Z,99886.13
2022-12-08T16:32:58.489Z,99937.59
2022-12-08T16:36:02.811Z,99929.94
2022-12-08T16:39:15.750Z,99923.97
2022-12-08T16:42:40.919Z,99926.91
2022-12-08T16:45:45.235Z,99809.03
2022-12-08T16:48:48.296Z,99840.91
2022-12-08T16:51:53.502Z,99935.78
2022-12-08T16:54:57.842Z,99932.34
2022-12-08T16:58:04.776Z,99929.31
2022-12-08T17:01:19.368Z,99934.97
2022-12-08T17:04:34.724Z,99941.13
2022-12-08T17:07:37.693Z,99950.53
2022-12-08T17:10:45.470Z,99917.00
2022-12-08T17:13:59.172Z,99914.78
2022-12-08T17:17:11.980Z,99935.28
2022-12-08T17:20:36.633Z,99832.34
2022-12-08T17:23:41.537Z,99934.16
2022-12-08T17:26:50.330Z,99934.16
2022-12-08T17:29:59.180Z,99923.47
2022-12-08T17:33:12.312Z,99943.97
2022-12-08T17:36:21.970Z,99948.81
2022-12-08T17:39:27.010Z,99953.78
2022-12-08T17:42:31.609Z,99855.94
2022-12-08T17:45:34.323Z,99910.66
2022-12-08T17:48:37.405Z,99916.81
2022-12-08T17:51:40.004Z,99920.62
2022-12-08T17:54:43.291Z,99924.50
2022-12-08T17:57:47.200Z,99923.56
2022-12-08T18:00:51.494Z,99929.84
2022-12-08T18:03:54.264Z,99923.25
2022-12-08T18:06:59.468Z,99928.72
2022-12-08T18:10:02.369Z,99927.09
2022-12-08T18:13:05.695Z,99919.53
2022-12-08T18:16:21.441Z,99928.72
2022-12-08T18:19:24.006Z,99916.19
2022-12-08T18:22:32.124Z,99912.34
2022-12-08T18:25:34.543Z,99907.50
2022-12-08T18:28:41.195Z,99918.81
2022-12-08T18:32:07.622Z,99918.81
2022-12-08T18:35:21.869Z,99916.59
2022-12-08T18:38:24.322Z,99821.53
2022-12-08T18:41:27.360Z,99920.22
2022-12-08T18:44:31.243Z,99918.81
2022-12-08T18:47:36.613Z,99928.50
2022-12-08T18:50:43.161Z,99937.19
2022-12-08T18:53:46.894Z,99925.25
2022-12-08T18:56:49.681Z,99933.44
2022-12-08T19:00:10.957Z,99933.97
2022-12-08T19:03:13.381Z,99917.59
2022-12-08T19:06:16.346Z,99914.28
2022-12-08T19:12:53.869Z,99918.78
2022-12-08T19:15:58.072Z,99917.16
2022-12-08T19:19:02.200Z,99913.12
2022-12-08T19:22:07.713Z,99898.09
2022-12-08T19:25:12.676Z,99921.06
2022-12-08T19:28:15.325Z,99854.44
2022-12-08T19:31:20.983Z,99927.72
2022-12-08T19:34:23.827Z,99923.97
2022-12-08T19:37:28.543Z,99906.31
2022-12-08T19:40:49.755Z,99936.00
2022-12-08T19:44:10.803Z,99901.19
2022-12-08T19:47:14.721Z,99934.88
2022-12-08T19:50:35.996Z,99925.81
2022-12-08T19:53:41.865Z,99895.41
2022-12-08T19:56:48.304Z,99928.59
2022-12-08T19:59:56.418Z,99928.44
2022-12-08T20:03:00.672Z,99910.56
2022-12-08T20:06:05.095Z,99884.72
2022-12-08T20:09:08.684Z,99902.47
2022-12-08T20:12:14.849Z,99904.72
2022-12-08T20:15:17.921Z,99903.59
2022-12-08T20:18:23.272Z,99900.97
2022-12-08T20:21:26.014Z,99913.78
2022-12-08T20:24:38.980Z,99898.84
2022-12-08T20:27:43.598Z,99843.31
2022-12-08T20:30:55.820Z,99884.72
2022-12-08T20:34:02.704Z,99888.53
2022-12-08T20:37:07.837Z,99862.09
2022-12-08T20:40:16.009Z,99886.84
2022-12-08T20:43:19.429Z,99894.19
2022-12-08T20:46:38.569Z,99889.56
2022-12-08T20:49:45.557Z,99876.84
2022-12-08T20:52:56.822Z,99898.34
2022-12-08T20:55:59.479Z,99908.75
2022-12-08T20:59:07.332Z,99917.22
2022-12-08T21:02:16.841Z,99917.53
2022-12-08T21:05:19.690Z,99918.13
2022-12-08T21:08:28.493Z,99919.22
2022-12-08T21:12:03.751Z,99917.41
2022-12-08T21:15:08.146Z,99925.87
2022-12-08T21:18:10.741Z,99912.34
2022-12-08T21:21:17.853Z,99925.87
2022-12-08T21:24:20.785Z,99917.69
2022-12-08T21:27:23.698Z,99918.41
2022-12-08T21:30:26.040Z,99921.66
2022-12-08T21:33:29.010Z,99913.47
2022-12-08T21:36:32.002Z,99912.34
2022-12-08T21:39:34.756Z,99904.19
2022-12-08T21:42:46.405Z,99882.50
2022-12-08T21:45:49.630Z,99882.09
2022-12-08T21:48:53.337Z,99884.50
2022-12-08T21:51:56.625Z,99884.72
2022-12-08T21:55:01.398Z,99883.59
2022-12-08T21:58:04.320Z,99782.69
2022-12-08T22:01:11.844Z,99891.59
2022-12-08T22:04:18.980Z,99822.31
2022-12-08T22:07:21.716Z,99874.00
2022-12-08T22:10:24.701Z,99903.88
2022-12-08T22:13:28.680Z,99894.59
2022-12-08T22:16:33.163Z,99866.53
2022-12-08T22:19:35.862Z,99893.00
2022-12-08T22:22:40.053Z,99885.41
2022-12-08T22:25:42.505Z,99869.47
2022-12-08T22:28:45.267Z,99892.56
2022-12-08T22:31:47.896Z,99894.19
2022-12-08T22:34:50.596Z,99907.91
2022-12-08T22:37:53.075Z,99906.50
2022-12-08T22:40:55.932Z,99907.22
2022-12-08T22:43:58.212Z,99846.19
2022-12-08T22:47:01.001Z,99871.78
2022-12-08T22:50:04.844Z,99896.81
2022-12-08T22:53:07.779Z,99896.81
2022-12-08T22:56:13.356Z,99881.97
2022-12-08T22:59:16.138Z,99893.16
2022-12-08T23:02:18.688Z,99892.34
2022-12-08T23:05:21.585Z,99890.75
2022-12-08T23:08:24.587Z,99898.44
2022-12-08T23:11:30.951Z,99901.66
2022-12-08T23:14:33.340Z,99896.41
2022-12-08T23:17:36.205Z,99889.72
2022-12-08T23:20:38.766Z,99889.72
2022-12-08T23:23:42.037Z,99892.47
2022-12-08T23:26:44.415Z,99890.34
2022-12-08T23:29:47.177Z,99889.25
2022-12-08T23:32:49.686Z,99877.94
2022-12-08T23:35:58.835Z,99884.09
2022-12-08T23:39:01.351Z,99853.09
2022-12-08T23:42:04.328Z,99868.94
2022-12-08T23:45:08.909Z,99897.19
2022-12-08T23:48:11.720Z,99867.62
2022-12-08T23:51:14.553Z,99876.41
2022-12-08T23:54:17.863Z,99849.88
2022-12-08T23:57:21.197Z,99876.00
